Flight Track Log - Related Links

Times and Time Zones

All times are in EDT time to prevent confusion due to time zone crossing. See the DAL1638 flight status page for this flight to view local times or setup timezone preferences in your user account.


Time Position Orientation Groundspeed Altitude Reporting Facility
EDT Latitude Longitude Course Direction KTS MPH feet Rate Location/Type
Fri 07:47:44 PM 33.6328 -84.4806 53° Northeast 469 540 2,800  Level Atlanta Center
Fri 07:48:10 PM 33.6167 -84.5167 242° Southwest 213 245 3,900 2,930 Climbing Atlanta TRACON
Fri 07:49:10 PM 33.5833 -84.5833 239° Southwest 266 306 7,000 3,000 Climbing Atlanta TRACON
Fri 07:50:00 PM 33.7845 -83.9204 54° Northeast  Level FlightAware Approximate
Fri 07:50:04 PM 33.5167 -84.5833 180° South 270 311 9,600  Level Atlanta TRACON
Fri 07:51:00 PM 33.8497 -83.8117 54° Northeast  Level FlightAware Approximate
Fri 07:51:44 PM 33.4553 -84.4694 123° Southeast 280 322 13,000  Level Atlanta Center
Fri 07:52:00 PM 33.9214 -83.7091 53° Northeast  Level FlightAware Approximate
Fri 07:52:44 PM 33.4975 -84.3725 62° Northeast 292 336 14,300  Level Atlanta Center
Fri 07:53:00 PM 33.9884 -83.6018 53° Northeast  Level FlightAware Approximate
Fri 07:53:44 PM 33.5664 -84.2956 43° Northeast 303 349 16,600  Level Atlanta Center
Fri 07:54:44 PM 33.6314 -84.2133 46° Northeast 332 382 19,700 2,650 Climbing Atlanta Center
Fri 07:55:44 PM 33.7044 -84.1286 44° Northeast 337 388 21,900 1,650 Climbing Atlanta Center
Fri 07:56:44 PM 33.7672 -84.0314 52° Northeast 354 407 23,000 1,450 Climbing Atlanta Center
Fri 07:57:44 PM 33.8214 -83.9264 58° Northeast 366 421 24,800 1,700 Climbing Atlanta Center
Fri 07:58:44 PM 33.8797 -83.8136 58° Northeast 377 434 26,400 1,650 Climbing Atlanta Center
Fri 07:59:44 PM 33.9400 -83.7008 57° Northeast 393 452 28,100 1,200 Climbing Atlanta Center
Fri 08:00:44 PM 34.0022 -83.6003 53° Northeast 401 461 28,800 700 Climbing Atlanta Center
Fri 08:01:44 PM 34.0811 -83.4769 52° Northeast 434 499 29,500 750 Climbing Atlanta Center
Fri 08:02:44 PM 34.1597 -83.3508 53° Northeast 464 534 30,300 1,350 Climbing Atlanta Center
Fri 08:03:44 PM 34.2403 -83.2172 54° Northeast 479 551 32,200 1,350 Climbing Atlanta Center
Fri 08:04:44 PM 34.3208 -83.0906 52° Northeast 479 551 33,000 400 Climbing Atlanta Center
Fri 08:05:44 PM 34.4031 -82.9586 53° Northeast 485 558 33,000  Level Atlanta Center
Fri 08:06:44 PM 34.4811 -82.8317 53° Northeast 485 558 33,000  Level Atlanta Center
Fri 08:07:44 PM 34.5653 -82.6917 54° Northeast 479 551 33,000  Level Atlanta Center
Fri 08:08:44 PM 34.6472 -82.5642 52° Northeast 479 551 33,000  Level Atlanta Center
Fri 08:09:44 PM 34.7250 -82.4364 53° Northeast 473 544 33,000  Level Atlanta Center
Fri 08:10:44 PM 34.8047 -82.3058 53° Northeast 473 544 33,000  Level Atlanta Center
Fri 08:11:44 PM 34.8842 -82.1753 53° Northeast 478 550 33,000  Level Atlanta Center
Fri 08:12:44 PM 34.9533 -82.0622 53° Northeast 478 550 33,000  Level Atlanta Center
Fri 08:13:44 PM 35.0406 -81.9181 54° Northeast 478 550 33,000  Level Atlanta Center
Fri 08:14:44 PM 35.1069 -81.7767 60° Northeast 478 550 33,000  Level Atlanta Center
Fri 08:15:44 PM 35.1564 -81.6281 68° East 473 544 33,000  Level Atlanta Center
Fri 08:16:44 PM 35.2075 -81.4739 68° East 473 544 33,000  Level Atlanta Center
Fri 08:17:44 PM 35.2583 -81.3222 68° East 478 550 33,000 -550 Level Atlanta Center
Fri 08:18:44 PM 35.3050 -81.1706 69° East 478 550 31,900 -1,000 Descending Atlanta Center
Fri 08:19:44 PM 35.3578 -81.0186 67° East 478 550 31,000 -450 Descending Atlanta Center
Fri 08:20:44 PM 35.4081 -80.8664 68° East 478 550 31,000  Level Atlanta Center
Fri 08:21:44 PM 35.4564 -80.7167 68° East 478 550 31,000  Level Atlanta Center
Fri 08:22:44 PM 35.5064 -80.5642 68° East 478 550 31,000  Level Atlanta Center
Fri 08:23:44 PM 35.5542 -80.4114 69° East 478 550 31,000  Level Atlanta Center
Fri 08:24:44 PM 35.6039 -80.2611 68° East 478 550 31,000  Level Atlanta Center
Fri 08:26:15 PM 35.6792 -80.0361 68° East 480 552 31,000  Level Washington Center
Fri 08:27:15 PM 35.7286 -79.8828 68° East 474 545 31,000  Level Washington Center
Fri 08:28:16 PM 35.7758 -79.7292 69° East 479 551 31,000  Level Washington Center
Fri 08:29:17 PM 35.8303 -79.5964 63° Northeast 484 557 31,000  Level Washington Center
Fri 08:30:17 PM 35.9244 -79.4653 48° Northeast 471 542 31,000 -135 Level Washington Center
Fri 08:32:15 PM 36.1028 -79.2322 47° Northeast 461 531 30,600 -670 Descending Washington Center
Fri 08:33:16 PM 36.1939 -79.1131 47° Northeast 466 536 29,000 -1,488 Descending Washington Center
Fri 08:34:16 PM 36.2853 -78.9908 47° Northeast 466 536 27,600 -992 Descending Washington Center
Fri 08:35:17 PM 36.3761 -78.8708 47° Northeast 466 536 27,000 -303 Descending Washington Center
Fri 08:36:15 PM 36.4672 -78.7481 47° Northeast 471 542 27,000  Level Washington Center
Fri 08:37:15 PM 36.5578 -78.6250 47° Northeast 477 549 27,000  Level Washington Center
Fri 08:38:16 PM 36.6464 -78.5042 48° Northeast 477 549 27,000  Level Washington Center
Fri 08:39:16 PM 36.7261 -78.3958 47° Northeast 477 549 27,000  Level Washington Center
Fri 08:40:17 PM 36.8147 -78.2719 48° Northeast 477 549 27,000  Level Washington Center
Fri 08:41:15 PM 36.9028 -78.1503 48° Northeast 477 549 27,000  Level Washington Center
Fri 08:42:15 PM 36.9950 -78.0258 47° Northeast 477 549 27,000  Level Washington Center
Fri 08:43:17 PM 37.0850 -77.9064 47° Northeast 477 549 27,000 -98 Level Washington Center
Fri 08:44:17 PM 37.1708 -77.7839 49° Northeast 477 549 26,800 -1,017 Descending Washington Center
Fri 08:45:15 PM 37.2644 -77.6769 42° Northeast 467 537 25,000 -1,613 Descending Washington Center
Fri 08:46:16 PM 37.3822 -77.6200 21° North 453 521 23,600 -1,488 Descending Washington Center
Fri 08:47:16 PM 37.4958 -77.5708 19° North 432 497 22,000 -793 Descending Washington Center
Fri 08:48:17 PM 37.6053 -77.5106 24° Northeast 427 491 22,000 -744 Level Washington Center
Fri 08:49:17 PM 37.7189 -77.4531 22° Northeast 427 491 20,500 -1,983 Descending Washington Center
Fri 08:50:15 PM 37.8303 -77.3953 22° Northeast 432 497 18,100 -2,319 Descending Washington Center
Fri 08:51:16 PM 37.9331 -77.3425 22° Northeast 418 481 15,900 -2,164 Descending Washington Center
Fri 08:52:17 PM 38.0339 -77.2894 23° Northeast 397 457 13,700 -2,200 Descending Washington Center
Fri 08:53:16 PM 38.1306 -77.2442 20° North 374 430 11,500 -1,835 Descending Washington Center
Fri 08:54:18 PM 38.2189 -77.1958 23° Northeast 361 415 10,000 -756 Descending Washington Center
Fri 08:55:15 PM 38.3089 -77.1556 19° North 346 398 10,000 -51 Level Washington Center
Fri 08:56:16 PM 38.4053 -77.1336 10° North 336 387 9,900 -50 Descending Washington Center
Fri 08:57:15 PM 38.4972 -77.1169 North 336 387 9,900 50 Level Washington Center
Fri 08:58:16 PM 38.5911 -77.0978 North 336 387 10,000 -443 Climbing Washington Center
Fri 08:59:17 PM 38.6708 -77.0781 11° North 315 362 9,000 -1,569 Descending Washington Center
Fri 09:00:26 PM 38.7667 -77.0667 North 273 314 6,600 -1,349 Descending Potomac TRACON
Fri 09:01:26 PM 38.8333 -77.1167 330° Northwest 243 280 6,100 -250 Descending Potomac TRACON
Fri 09:02:26 PM 38.8667 -77.1667 311° West 209 241 6,100  Level Potomac TRACON
Fri 09:03:32 PM 38.9167 -77.2167 322° Northwest 210 242 6,100  Level Potomac TRACON
Fri 09:04:26 PM 38.9500 -77.2667 311° West 210 242 6,100  Level Potomac TRACON
Fri 09:05:26 PM 39.0000 -77.3167 322° Northwest 211 243 6,100 -300 Level Potomac TRACON
Fri 09:06:26 PM 39.0333 -77.3333 339° North 205 236 5,500 -684 Descending Potomac TRACON
Fri 09:07:20 PM 39.0500 -77.2667 72° East 194 223 4,800 -900 Descending Potomac TRACON
Fri 09:08:26 PM 39.0167 -77.2167 131° Southeast 179 206 3,700 -810 Descending Potomac TRACON
Fri 09:09:26 PM 38.9833 -77.1833 142° Southeast 172 198 3,100 -650 Descending Potomac TRACON
Fri 09:10:26 PM 38.9500 -77.1333 131° Southeast 171 197 2,400 -700 Descending Potomac TRACON

Login

Don't have an account? Register now (free) for customized features, flight alerts, and more!